sensor_id;sensor_type;location;lat;lon;timestamp;P1;durP1;ratioP1;P2;durP2;ratioP2
35969;SDS011;22448;51.298;6.430;2022-11-22T00:00:42;13.02;;;5.07;;
35969;SDS011;22448;51.298;6.430;2022-11-22T00:03:09;20.52;;;4.95;;
35969;SDS011;22448;51.298;6.430;2022-11-22T00:05:36;14.25;;;4.90;;
35969;SDS011;22448;51.298;6.430;2022-11-22T00:08:04;26.08;;;5.82;;
35969;SDS011;22448;51.298;6.430;2022-11-22T00:10:31;17.77;;;5.93;;
35969;SDS011;22448;51.298;6.430;2022-11-22T00:12:58;21.20;;;6.05;;
35969;SDS011;22448;51.298;6.430;2022-11-22T00:15:25;25.85;;;5.60;;
35969;SDS011;22448;51.298;6.430;2022-11-22T00:17:53;23.38;;;6.25;;
35969;SDS011;22448;51.298;6.430;2022-11-22T00:20:20;22.15;;;6.05;;
35969;SDS011;22448;51.298;6.430;2022-11-22T00:22:47;11.95;;;5.20;;
35969;SDS011;22448;51.298;6.430;2022-11-22T00:25:14;17.35;;;5.68;;
35969;SDS011;22448;51.298;6.430;2022-11-22T00:27:41;18.40;;;5.75;;
35969;SDS011;22448;51.298;6.430;2022-11-22T00:30:08;18.58;;;5.80;;
35969;SDS011;22448;51.298;6.430;2022-11-22T00:32:36;12.63;;;4.85;;
35969;SDS011;22448;51.298;6.430;2022-11-22T00:35:03;20.00;;;6.53;;
35969;SDS011;22448;51.298;6.430;2022-11-22T00:37:30;22.95;;;5.63;;
35969;SDS011;22448;51.298;6.430;2022-11-22T00:39:57;18.35;;;6.47;;
35969;SDS011;22448;51.298;6.430;2022-11-22T00:42:24;19.52;;;5.45;;
35969;SDS011;22448;51.298;6.430;2022-11-22T00:44:51;14.40;;;5.35;;
35969;SDS011;22448;51.298;6.430;2022-11-22T00:47:18;15.65;;;5.00;;
35969;SDS011;22448;51.298;6.430;2022-11-22T00:49:45;12.40;;;4.28;;
35969;SDS011;22448;51.298;6.430;2022-11-22T00:52:12;15.90;;;4.53;;
35969;SDS011;22448;51.298;6.430;2022-11-22T00:54:39;16.25;;;3.95;;
35969;SDS011;22448;51.298;6.430;2022-11-22T00:57:06;18.33;;;4.45;;
35969;SDS011;22448;51.298;6.430;2022-11-22T00:59:33;15.70;;;4.50;;
35969;SDS011;22448;51.298;6.430;2022-11-22T01:02:00;9.98;;;4.20;;
35969;SDS011;22448;51.298;6.430;2022-11-22T01:04:27;13.27;;;3.70;;
35969;SDS011;22448;51.298;6.430;2022-11-22T01:06:54;10.82;;;3.90;;
35969;SDS011;22448;51.298;6.430;2022-11-22T01:09:22;10.73;;;3.47;;
35969;SDS011;22448;51.298;6.430;2022-11-22T01:11:50;13.10;;;3.10;;
35969;SDS011;22448;51.298;6.430;2022-11-22T01:14:17;14.00;;;3.40;;
35969;SDS011;22448;51.298;6.430;2022-11-22T01:16:45;9.75;;;3.15;;
35969;SDS011;22448;51.298;6.430;2022-11-22T01:19:12;9.40;;;2.63;;
35969;SDS011;22448;51.298;6.430;2022-11-22T01:21:39;17.60;;;3.90;;
35969;SDS011;22448;51.298;6.430;2022-11-22T01:24:06;10.27;;;3.42;;
35969;SDS011;22448;51.298;6.430;2022-11-22T01:26:34;8.32;;;2.92;;
35969;SDS011;22448;51.298;6.430;2022-11-22T01:29:01;7.30;;;2.80;;
35969;SDS011;22448;51.298;6.430;2022-11-22T01:31:29;10.45;;;3.30;;
35969;SDS011;22448;51.298;6.430;2022-11-22T01:33:57;6.50;;;3.03;;
35969;SDS011;22448;51.298;6.430;2022-11-22T01:36:25;9.65;;;2.65;;
35969;SDS011;22448;51.298;6.430;2022-11-22T01:38:52;13.23;;;3.65;;
35969;SDS011;22448;51.298;6.430;2022-11-22T01:41:20;11.00;;;3.13;;
35969;SDS011;22448;51.298;6.430;2022-11-22T01:43:47;10.30;;;2.90;;
35969;SDS011;22448;51.298;6.430;2022-11-22T01:46:24;18.83;;;3.15;;
35969;SDS011;22448;51.298;6.430;2022-11-22T01:49:04;11.70;;;3.17;;
35969;SDS011;22448;51.298;6.430;2022-11-22T01:51:46;10.75;;;2.67;;
35969;SDS011;22448;51.298;6.430;2022-11-22T01:54:18;9.90;;;2.78;;
35969;SDS011;22448;51.298;6.430;2022-11-22T01:56:51;12.10;;;2.97;;
35969;SDS011;22448;51.298;6.430;2022-11-22T01:59:25;12.23;;;3.30;;
35969;SDS011;22448;51.298;6.430;2022-11-22T02:01:56;14.75;;;3.28;;
35969;SDS011;22448;51.298;6.430;2022-11-22T02:04:26;18.25;;;3.75;;
35969;SDS011;22448;51.298;6.430;2022-11-22T02:09:31;14.68;;;3.30;;
35969;SDS011;22448;51.298;6.430;2022-11-22T02:12:00;18.67;;;3.40;;
35969;SDS011;22448;51.298;6.430;2022-11-22T02:14:29;15.18;;;3.75;;
35969;SDS011;22448;51.298;6.430;2022-11-22T02:16:57;21.95;;;3.33;;
35969;SDS011;22448;51.298;6.430;2022-11-22T02:19:58;18.25;;;3.40;;
35969;SDS011;22448;51.298;6.430;2022-11-22T02:22:35;21.95;;;3.90;;
35969;SDS011;22448;51.298;6.430;2022-11-22T02:25:40;23.52;;;3.83;;
35969;SDS011;22448;51.298;6.430;2022-11-22T02:28:07;20.70;;;4.07;;
35969;SDS011;22448;51.298;6.430;2022-11-22T02:30:35;21.20;;;3.67;;
35969;SDS011;22448;51.298;6.430;2022-11-22T02:33:03;31.35;;;4.90;;
35969;SDS011;22448;51.298;6.430;2022-11-22T02:35:30;17.98;;;3.67;;
35969;SDS011;22448;51.298;6.430;2022-11-22T02:40:27;24.08;;;3.85;;
35969;SDS011;22448;51.298;6.430;2022-11-22T02:42:58;20.85;;;3.80;;
35969;SDS011;22448;51.298;6.430;2022-11-22T02:45:28;27.48;;;4.03;;
35969;SDS011;22448;51.298;6.430;2022-11-22T02:48:05;34.95;;;4.20;;
35969;SDS011;22448;51.298;6.430;2022-11-22T02:50:40;16.00;;;3.30;;
35969;SDS011;22448;51.298;6.430;2022-11-22T02:53:09;28.73;;;4.93;;
35969;SDS011;22448;51.298;6.430;2022-11-22T02:55:36;24.50;;;4.38;;
35969;SDS011;22448;51.298;6.430;2022-11-22T02:58:03;23.40;;;4.15;;
35969;SDS011;22448;51.298;6.430;2022-11-22T03:00:35;32.67;;;4.45;;
35969;SDS011;22448;51.298;6.430;2022-11-22T03:03:02;31.33;;;4.55;;
35969;SDS011;22448;51.298;6.430;2022-11-22T03:05:30;27.60;;;4.15;;
35969;SDS011;22448;51.298;6.430;2022-11-22T03:07:57;27.92;;;3.88;;
35969;SDS011;22448;51.298;6.430;2022-11-22T03:10:24;30.33;;;4.00;;
35969;SDS011;22448;51.298;6.430;2022-11-22T03:12:51;28.98;;;4.40;;
35969;SDS011;22448;51.298;6.430;2022-11-22T03:15:18;33.25;;;4.07;;
35969;SDS011;22448;51.298;6.430;2022-11-22T03:17:45;26.80;;;4.40;;
35969;SDS011;22448;51.298;6.430;2022-11-22T03:20:12;28.98;;;5.53;;
35969;SDS011;22448;51.298;6.430;2022-11-22T03:22:39;23.75;;;4.90;;
35969;SDS011;22448;51.298;6.430;2022-11-22T03:25:06;26.48;;;5.65;;
35969;SDS011;22448;51.298;6.430;2022-11-22T03:27:33;36.38;;;5.32;;
35969;SDS011;22448;51.298;6.430;2022-11-22T03:30:00;24.75;;;4.82;;
35969;SDS011;22448;51.298;6.430;2022-11-22T03:32:27;24.60;;;4.95;;
35969;SDS011;22448;51.298;6.430;2022-11-22T03:34:54;37.67;;;4.80;;
35969;SDS011;22448;51.298;6.430;2022-11-22T03:37:21;26.38;;;4.45;;
35969;SDS011;22448;51.298;6.430;2022-11-22T03:39:48;27.25;;;5.13;;
35969;SDS011;22448;51.298;6.430;2022-11-22T03:42:15;25.73;;;4.20;;
35969;SDS011;22448;51.298;6.430;2022-11-22T03:44:47;25.80;;;4.10;;
35969;SDS011;22448;51.298;6.430;2022-11-22T03:47:14;29.13;;;4.70;;
35969;SDS011;22448;51.298;6.430;2022-11-22T03:49:41;27.63;;;4.45;;
35969;SDS011;22448;51.298;6.430;2022-11-22T03:52:08;27.42;;;4.57;;
35969;SDS011;22448;51.298;6.430;2022-11-22T03:54:35;19.08;;;3.58;;
35969;SDS011;22448;51.298;6.430;2022-11-22T03:57:02;22.70;;;4.13;;
35969;SDS011;22448;51.298;6.430;2022-11-22T03:59:29;33.13;;;5.07;;
35969;SDS011;22448;51.298;6.430;2022-11-22T04:01:56;33.15;;;4.00;;
35969;SDS011;22448;51.298;6.430;2022-11-22T04:04:23;25.38;;;4.28;;
35969;SDS011;22448;51.298;6.430;2022-11-22T04:06:50;34.45;;;4.60;;
35969;SDS011;22448;51.298;6.430;2022-11-22T04:09:17;29.08;;;4.75;;
35969;SDS011;22448;51.298;6.430;2022-11-22T04:11:44;18.58;;;3.13;;
35969;SDS011;22448;51.298;6.430;2022-11-22T04:14:11;29.05;;;4.28;;
35969;SDS011;22448;51.298;6.430;2022-11-22T04:16:57;26.08;;;4.43;;
35969;SDS011;22448;51.298;6.430;2022-11-22T04:19:24;33.75;;;4.10;;
35969;SDS011;22448;51.298;6.430;2022-11-22T04:21:50;27.42;;;4.88;;
35969;SDS011;22448;51.298;6.430;2022-11-22T04:24:17;28.13;;;4.25;;
35969;SDS011;22448;51.298;6.430;2022-11-22T04:27:03;35.75;;;4.35;;
35969;SDS011;22448;51.298;6.430;2022-11-22T04:29:30;22.55;;;4.00;;
35969;SDS011;22448;51.298;6.430;2022-11-22T04:31:57;33.33;;;4.53;;
35969;SDS011;22448;51.298;6.430;2022-11-22T04:34:43;26.30;;;3.78;;
35969;SDS011;22448;51.298;6.430;2022-11-22T04:37:10;34.78;;;4.30;;
35969;SDS011;22448;51.298;6.430;2022-11-22T04:39:37;30.58;;;4.97;;
35969;SDS011;22448;51.298;6.430;2022-11-22T04:42:04;22.52;;;4.03;;
35969;SDS011;22448;51.298;6.430;2022-11-22T04:44:49;29.90;;;3.90;;
35969;SDS011;22448;51.298;6.430;2022-11-22T04:47:17;30.38;;;4.03;;
35969;SDS011;22448;51.298;6.430;2022-11-22T04:50:03;28.88;;;3.72;;
35969;SDS011;22448;51.298;6.430;2022-11-22T04:52:52;28.88;;;3.85;;
35969;SDS011;22448;51.298;6.430;2022-11-22T04:55:20;15.55;;;3.15;;
35969;SDS011;22448;51.298;6.430;2022-11-22T04:57:48;35.03;;;4.50;;
35969;SDS011;22448;51.298;6.430;2022-11-22T05:00:23;24.80;;;4.45;;
35969;SDS011;22448;51.298;6.430;2022-11-22T05:02:50;35.90;;;4.70;;
35969;SDS011;22448;51.298;6.430;2022-11-22T05:05:17;34.42;;;3.83;;
35969;SDS011;22448;51.298;6.430;2022-11-22T05:07:44;28.67;;;4.10;;
35969;SDS011;22448;51.298;6.430;2022-11-22T05:10:11;26.67;;;4.32;;
35969;SDS011;22448;51.298;6.430;2022-11-22T05:12:39;27.70;;;3.67;;
35969;SDS011;22448;51.298;6.430;2022-11-22T05:15:07;21.08;;;3.67;;
35969;SDS011;22448;51.298;6.430;2022-11-22T05:17:38;30.80;;;4.95;;
35969;SDS011;22448;51.298;6.430;2022-11-22T05:20:05;33.33;;;3.55;;
35969;SDS011;22448;51.298;6.430;2022-11-22T05:22:33;24.30;;;3.88;;
35969;SDS011;22448;51.298;6.430;2022-11-22T05:25:19;30.92;;;4.00;;
35969;SDS011;22448;51.298;6.430;2022-11-22T05:27:51;18.53;;;4.37;;
35969;SDS011;22448;51.298;6.430;2022-11-22T05:30:20;19.23;;;3.47;;
35969;SDS011;22448;51.298;6.430;2022-11-22T05:32:47;17.38;;;3.67;;
35969;SDS011;22448;51.298;6.430;2022-11-22T05:35:14;29.50;;;3.90;;
35969;SDS011;22448;51.298;6.430;2022-11-22T05:37:41;24.33;;;4.32;;
35969;SDS011;22448;51.298;6.430;2022-11-22T05:40:08;26.00;;;3.20;;
35969;SDS011;22448;51.298;6.430;2022-11-22T05:42:36;29.50;;;4.15;;
35969;SDS011;22448;51.298;6.430;2022-11-22T05:45:03;27.08;;;4.63;;
35969;SDS011;22448;51.298;6.430;2022-11-22T05:47:34;34.95;;;4.53;;
35969;SDS011;22448;51.298;6.430;2022-11-22T05:50:02;29.65;;;5.03;;
35969;SDS011;22448;51.298;6.430;2022-11-22T05:52:29;30.13;;;5.88;;
35969;SDS011;22448;51.298;6.430;2022-11-22T05:54:56;30.27;;;6.80;;
35969;SDS011;22448;51.298;6.430;2022-11-22T05:57:23;45.72;;;10.18;;
35969;SDS011;22448;51.298;6.430;2022-11-22T05:59:51;42.58;;;12.80;;
35969;SDS011;22448;51.298;6.430;2022-11-22T06:02:18;45.00;;;12.50;;
35969;SDS011;22448;51.298;6.430;2022-11-22T06:04:45;56.30;;;15.27;;
35969;SDS011;22448;51.298;6.430;2022-11-22T06:07:12;35.55;;;10.30;;
35969;SDS011;22448;51.298;6.430;2022-11-22T06:09:39;49.92;;;9.27;;
35969;SDS011;22448;51.298;6.430;2022-11-22T06:12:06;35.65;;;6.55;;
35969;SDS011;22448;51.298;6.430;2022-11-22T06:14:33;23.67;;;4.50;;
35969;SDS011;22448;51.298;6.430;2022-11-22T06:17:08;35.22;;;5.30;;
35969;SDS011;22448;51.298;6.430;2022-11-22T06:19:35;34.15;;;5.05;;
35969;SDS011;22448;51.298;6.430;2022-11-22T06:22:02;29.88;;;4.65;;
35969;SDS011;22448;51.298;6.430;2022-11-22T06:24:29;25.50;;;5.28;;
35969;SDS011;22448;51.298;6.430;2022-11-22T06:26:56;31.77;;;4.85;;
35969;SDS011;22448;51.298;6.430;2022-11-22T06:29:23;27.60;;;4.70;;
35969;SDS011;22448;51.298;6.430;2022-11-22T06:31:51;30.58;;;4.82;;
35969;SDS011;22448;51.298;6.430;2022-11-22T06:34:18;31.35;;;4.80;;
35969;SDS011;22448;51.298;6.430;2022-11-22T06:36:45;21.20;;;4.90;;
35969;SDS011;22448;51.298;6.430;2022-11-22T06:39:12;18.77;;;4.25;;
35969;SDS011;22448;51.298;6.430;2022-11-22T06:41:39;23.20;;;4.00;;
35969;SDS011;22448;51.298;6.430;2022-11-22T06:44:07;28.65;;;4.45;;
35969;SDS011;22448;51.298;6.430;2022-11-22T06:46:35;31.88;;;4.90;;
35969;SDS011;22448;51.298;6.430;2022-11-22T06:49:03;23.38;;;4.60;;
35969;SDS011;22448;51.298;6.430;2022-11-22T06:51:30;23.58;;;4.18;;
35969;SDS011;22448;51.298;6.430;2022-11-22T06:53:58;30.25;;;4.72;;
35969;SDS011;22448;51.298;6.430;2022-11-22T06:58:56;29.27;;;5.10;;
35969;SDS011;22448;51.298;6.430;2022-11-22T07:01:27;30.40;;;5.07;;
35969;SDS011;22448;51.298;6.430;2022-11-22T07:03:55;32.92;;;4.55;;
35969;SDS011;22448;51.298;6.430;2022-11-22T07:06:29;33.53;;;5.28;;
35969;SDS011;22448;51.298;6.430;2022-11-22T07:08:58;25.70;;;4.95;;
35969;SDS011;22448;51.298;6.430;2022-11-22T07:11:27;43.58;;;4.80;;
35969;SDS011;22448;51.298;6.430;2022-11-22T07:13:56;25.83;;;5.20;;
35969;SDS011;22448;51.298;6.430;2022-11-22T07:16:33;36.03;;;5.43;;
35969;SDS011;22448;51.298;6.430;2022-11-22T07:19:01;27.38;;;6.15;;
35969;SDS011;22448;51.298;6.430;2022-11-22T07:21:28;32.17;;;5.30;;
35969;SDS011;22448;51.298;6.430;2022-11-22T07:23:55;27.17;;;4.60;;
35969;SDS011;22448;51.298;6.430;2022-11-22T07:26:24;29.67;;;5.63;;
35969;SDS011;22448;51.298;6.430;2022-11-22T07:28:51;24.83;;;4.82;;
35969;SDS011;22448;51.298;6.430;2022-11-22T07:31:18;32.22;;;6.07;;
35969;SDS011;22448;51.298;6.430;2022-11-22T07:33:46;23.48;;;5.05;;
35969;SDS011;22448;51.298;6.430;2022-11-22T07:36:17;25.55;;;4.75;;
35969;SDS011;22448;51.298;6.430;2022-11-22T07:38:46;28.48;;;5.18;;
35969;SDS011;22448;51.298;6.430;2022-11-22T07:41:14;24.13;;;4.55;;
35969;SDS011;22448;51.298;6.430;2022-11-22T07:43:42;35.00;;;5.18;;
35969;SDS011;22448;51.298;6.430;2022-11-22T07:46:15;41.20;;;5.13;;
35969;SDS011;22448;51.298;6.430;2022-11-22T07:48:47;21.92;;;4.22;;
35969;SDS011;22448;51.298;6.430;2022-11-22T07:51:15;24.65;;;4.95;;
35969;SDS011;22448;51.298;6.430;2022-11-22T07:53:42;24.77;;;4.78;;
35969;SDS011;22448;51.298;6.430;2022-11-22T07:56:09;17.95;;;3.30;;
35969;SDS011;22448;51.298;6.430;2022-11-22T07:58:37;24.92;;;3.95;;
35969;SDS011;22448;51.298;6.430;2022-11-22T08:01:05;21.92;;;4.22;;
35969;SDS011;22448;51.298;6.430;2022-11-22T08:03:33;31.25;;;3.80;;
35969;SDS011;22448;51.298;6.430;2022-11-22T08:06:01;23.73;;;5.90;;
35969;SDS011;22448;51.298;6.430;2022-11-22T08:08:29;24.40;;;6.13;;
35969;SDS011;22448;51.298;6.430;2022-11-22T08:10:57;28.58;;;6.45;;
35969;SDS011;22448;51.298;6.430;2022-11-22T08:13:24;25.67;;;4.82;;
35969;SDS011;22448;51.298;6.430;2022-11-22T08:16:01;22.35;;;3.92;;
35969;SDS011;22448;51.298;6.430;2022-11-22T08:18:33;15.98;;;3.13;;
35969;SDS011;22448;51.298;6.430;2022-11-22T08:21:03;24.85;;;4.10;;
35969;SDS011;22448;51.298;6.430;2022-11-22T08:23:35;15.80;;;3.45;;
35969;SDS011;22448;51.298;6.430;2022-11-22T08:26:04;18.42;;;3.67;;
35969;SDS011;22448;51.298;6.430;2022-11-22T08:28:32;15.73;;;3.08;;
35969;SDS011;22448;51.298;6.430;2022-11-22T08:31:12;24.80;;;3.05;;
35969;SDS011;22448;51.298;6.430;2022-11-22T08:33:51;20.60;;;3.08;;
35969;SDS011;22448;51.298;6.430;2022-11-22T08:36:18;19.33;;;3.35;;
35969;SDS011;22448;51.298;6.430;2022-11-22T08:38:45;21.45;;;3.13;;
35969;SDS011;22448;51.298;6.430;2022-11-22T08:41:13;13.90;;;3.10;;
35969;SDS011;22448;51.298;6.430;2022-11-22T08:44:15;18.83;;;3.30;;
35969;SDS011;22448;51.298;6.430;2022-11-22T08:46:53;22.13;;;3.08;;
35969;SDS011;22448;51.298;6.430;2022-11-22T08:49:21;22.60;;;3.83;;
35969;SDS011;22448;51.298;6.430;2022-11-22T08:51:48;13.38;;;2.38;;
35969;SDS011;22448;51.298;6.430;2022-11-22T08:54:15;13.90;;;3.13;;
35969;SDS011;22448;51.298;6.430;2022-11-22T08:56:42;20.58;;;2.78;;
35969;SDS011;22448;51.298;6.430;2022-11-22T08:59:09;17.60;;;2.95;;
35969;SDS011;22448;51.298;6.430;2022-11-22T09:01:37;22.25;;;3.45;;
35969;SDS011;22448;51.298;6.430;2022-11-22T09:04:04;19.13;;;3.30;;
35969;SDS011;22448;51.298;6.430;2022-11-22T09:06:31;13.52;;;2.78;;
35969;SDS011;22448;51.298;6.430;2022-11-22T09:09:18;11.48;;;2.70;;
35969;SDS011;22448;51.298;6.430;2022-11-22T09:12:03;10.07;;;2.33;;
35969;SDS011;22448;51.298;6.430;2022-11-22T09:14:31;19.92;;;3.00;;
35969;SDS011;22448;51.298;6.430;2022-11-22T09:16:58;15.55;;;2.80;;
35969;SDS011;22448;51.298;6.430;2022-11-22T09:19:25;18.88;;;2.67;;
35969;SDS011;22448;51.298;6.430;2022-11-22T09:21:56;22.25;;;3.25;;
35969;SDS011;22448;51.298;6.430;2022-11-22T09:24:23;24.40;;;3.40;;
35969;SDS011;22448;51.298;6.430;2022-11-22T09:26:49;18.02;;;3.42;;
35969;SDS011;22448;51.298;6.430;2022-11-22T09:29:16;15.70;;;2.25;;
35969;SDS011;22448;51.298;6.430;2022-11-22T09:31:43;12.63;;;2.35;;
35969;SDS011;22448;51.298;6.430;2022-11-22T09:34:10;18.80;;;2.63;;
35969;SDS011;22448;51.298;6.430;2022-11-22T09:36:37;18.40;;;3.08;;
35969;SDS011;22448;51.298;6.430;2022-11-22T09:39:05;18.48;;;3.08;;
35969;SDS011;22448;51.298;6.430;2022-11-22T09:52:52;19.75;;;3.03;;
35969;SDS011;22448;51.298;6.430;2022-11-22T09:55:50;10.98;;;2.65;;
35969;SDS011;22448;51.298;6.430;2022-11-22T10:00:51;18.42;;;2.30;;
35969;SDS011;22448;51.298;6.430;2022-11-22T10:03:29;18.42;;;3.10;;
35969;SDS011;22448;51.298;6.430;2022-11-22T10:06:11;12.43;;;2.20;;
35969;SDS011;22448;51.298;6.430;2022-11-22T10:08:51;11.40;;;1.77;;
35969;SDS011;22448;51.298;6.430;2022-11-22T10:11:47;11.63;;;2.17;;
35969;SDS011;22448;51.298;6.430;2022-11-22T10:14:54;13.38;;;2.08;;
35969;SDS011;22448;51.298;6.430;2022-11-22T10:17:36;10.05;;;1.90;;
35969;SDS011;22448;51.298;6.430;2022-11-22T10:20:20;11.43;;;2.13;;
35969;SDS011;22448;51.298;6.430;2022-11-22T10:22:48;6.45;;;1.90;;
35969;SDS011;22448;51.298;6.430;2022-11-22T10:25:37;14.82;;;1.73;;
35969;SDS011;22448;51.298;6.430;2022-11-22T10:39:02;12.93;;;1.67;;
35969;SDS011;22448;51.298;6.430;2022-11-22T10:41:38;8.52;;;1.60;;
35969;SDS011;22448;51.298;6.430;2022-11-22T10:49:40;9.63;;;1.63;;
35969;SDS011;22448;51.298;6.430;2022-11-22T10:53:03;5.95;;;1.75;;
35969;SDS011;22448;51.298;6.430;2022-11-22T10:55:52;13.48;;;1.80;;
35969;SDS011;22448;51.298;6.430;2022-11-22T11:04:05;9.10;;;1.77;;
35969;SDS011;22448;51.298;6.430;2022-11-22T11:06:36;11.45;;;1.63;;
35969;SDS011;22448;51.298;6.430;2022-11-22T11:12:48;14.15;;;2.45;;
35969;SDS011;22448;51.298;6.430;2022-11-22T11:17:50;13.93;;;2.25;;
35969;SDS011;22448;51.298;6.430;2022-11-22T11:20:27;9.52;;;2.25;;
35969;SDS011;22448;51.298;6.430;2022-11-22T11:22:58;8.23;;;1.58;;
35969;SDS011;22448;51.298;6.430;2022-11-22T11:25:41;9.05;;;1.90;;
35969;SDS011;22448;51.298;6.430;2022-11-22T11:30:50;8.15;;;1.58;;
35969;SDS011;22448;51.298;6.430;2022-11-22T11:35:56;8.38;;;1.77;;
35969;SDS011;22448;51.298;6.430;2022-11-22T11:38:33;6.72;;;1.40;;
35969;SDS011;22448;51.298;6.430;2022-11-22T11:43:47;5.78;;;1.60;;
35969;SDS011;22448;51.298;6.430;2022-11-22T11:46:20;7.00;;;1.95;;
35969;SDS011;22448;51.298;6.430;2022-11-22T11:48:49;8.77;;;1.90;;
35969;SDS011;22448;51.298;6.430;2022-11-22T11:56:31;5.88;;;1.27;;
35969;SDS011;22448;51.298;6.430;2022-11-22T11:59:13;4.00;;;1.13;;
35969;SDS011;22448;51.298;6.430;2022-11-22T12:01:52;14.18;;;1.65;;
35969;SDS011;22448;51.298;6.430;2022-11-22T12:04:33;9.30;;;1.90;;
35969;SDS011;22448;51.298;6.430;2022-11-22T12:07:14;5.90;;;1.50;;
35969;SDS011;22448;51.298;6.430;2022-11-22T12:09:43;6.72;;;1.35;;
35969;SDS011;22448;51.298;6.430;2022-11-22T12:12:18;5.50;;;1.02;;
35969;SDS011;22448;51.298;6.430;2022-11-22T12:14:52;7.20;;;1.25;;
35969;SDS011;22448;51.298;6.430;2022-11-22T12:21:02;2.53;;;1.10;;
35969;SDS011;22448;51.298;6.430;2022-11-22T12:23:34;5.75;;;1.20;;
35969;SDS011;22448;51.298;6.430;2022-11-22T12:26:06;7.72;;;1.20;;
35969;SDS011;22448;51.298;6.430;2022-11-22T12:28:33;4.25;;;1.10;;
35969;SDS011;22448;51.298;6.430;2022-11-22T12:31:02;5.13;;;0.95;;
35969;SDS011;22448;51.298;6.430;2022-11-22T12:33:54;3.83;;;0.90;;
35969;SDS011;22448;51.298;6.430;2022-11-22T12:37:11;4.95;;;0.90;;
35969;SDS011;22448;51.298;6.430;2022-11-22T12:39:26;6.40;;;1.10;;
35969;SDS011;22448;51.298;6.430;2022-11-22T12:42:17;4.60;;;0.90;;
35969;SDS011;22448;51.298;6.430;2022-11-22T12:45:10;2.60;;;1.35;;
35969;SDS011;22448;51.298;6.430;2022-11-22T12:47:42;5.43;;;3.00;;
35969;SDS011;22448;51.298;6.430;2022-11-22T12:53:14;8.90;;;3.53;;
35969;SDS011;22448;51.298;6.430;2022-11-22T12:58:26;11.20;;;4.30;;
35969;SDS011;22448;51.298;6.430;2022-11-22T13:01:06;2.67;;;0.90;;
35969;SDS011;22448;51.298;6.430;2022-11-22T13:06:24;0.70;;;0.40;;
35969;SDS011;22448;51.298;6.430;2022-11-22T13:08:59;1.60;;;0.73;;
35969;SDS011;22448;51.298;6.430;2022-11-22T13:11:31;2.10;;;0.73;;
35969;SDS011;22448;51.298;6.430;2022-11-22T13:14:10;0.77;;;0.45;;
35969;SDS011;22448;51.298;6.430;2022-11-22T13:16:47;4.32;;;0.80;;
35969;SDS011;22448;51.298;6.430;2022-11-22T13:19:16;1.50;;;0.70;;
35969;SDS011;22448;51.298;6.430;2022-11-22T13:22:04;2.42;;;0.60;;
35969;SDS011;22448;51.298;6.430;2022-11-22T13:27:30;1.33;;;0.70;;
35969;SDS011;22448;51.298;6.430;2022-11-22T13:30:01;2.03;;;0.73;;
35969;SDS011;22448;51.298;6.430;2022-11-22T13:32:30;1.75;;;0.60;;
35969;SDS011;22448;51.298;6.430;2022-11-22T13:35:04;2.22;;;0.63;;
35969;SDS011;22448;51.298;6.430;2022-11-22T13:37:45;2.63;;;0.80;;
35969;SDS011;22448;51.298;6.430;2022-11-22T13:45:51;1.45;;;0.90;;
35969;SDS011;22448;51.298;6.430;2022-11-22T13:51:09;1.63;;;0.77;;
35969;SDS011;22448;51.298;6.430;2022-11-22T13:53:42;2.17;;;0.85;;
35969;SDS011;22448;51.298;6.430;2022-11-22T14:07:19;2.35;;;0.70;;
35969;SDS011;22448;51.298;6.430;2022-11-22T14:09:38;8.20;;;2.67;;
35969;SDS011;22448;51.298;6.430;2022-11-22T14:18:08;18.00;;;5.80;;
35969;SDS011;22448;51.298;6.430;2022-11-22T14:21:02;4.97;;;2.80;;
35969;SDS011;22448;51.298;6.430;2022-11-22T14:23:38;4.72;;;1.30;;
35969;SDS011;22448;51.298;6.430;2022-11-22T14:32:02;2.00;;;1.55;;
35969;SDS011;22448;51.298;6.430;2022-11-22T14:37:45;1.92;;;0.70;;
35969;SDS011;22448;51.298;6.430;2022-11-22T14:40:35;2.30;;;0.80;;
35969;SDS011;22448;51.298;6.430;2022-11-22T14:43:05;2.80;;;0.60;;
35969;SDS011;22448;51.298;6.430;2022-11-22T14:45:48;0.98;;;0.88;;
35969;SDS011;22448;51.298;6.430;2022-11-22T14:48:18;1.65;;;0.63;;
35969;SDS011;22448;51.298;6.430;2022-11-22T14:51:00;3.60;;;0.75;;
35969;SDS011;22448;51.298;6.430;2022-11-22T14:53:37;1.13;;;0.65;;
35969;SDS011;22448;51.298;6.430;2022-11-22T14:56:22;3.85;;;0.80;;
35969;SDS011;22448;51.298;6.430;2022-11-22T14:58:56;3.42;;;0.98;;
35969;SDS011;22448;51.298;6.430;2022-11-22T15:04:24;6.10;;;0.90;;
35969;SDS011;22448;51.298;6.430;2022-11-22T15:07:25;2.58;;;1.20;;
35969;SDS011;22448;51.298;6.430;2022-11-22T15:13:38;3.00;;;0.52;;
35969;SDS011;22448;51.298;6.430;2022-11-22T15:16:19;4.15;;;0.70;;
35969;SDS011;22448;51.298;6.430;2022-11-22T15:19:29;3.67;;;0.90;;
35969;SDS011;22448;51.298;6.430;2022-11-22T15:22:25;3.08;;;0.70;;
35969;SDS011;22448;51.298;6.430;2022-11-22T15:25:15;4.97;;;1.27;;
35969;SDS011;22448;51.298;6.430;2022-11-22T15:28:04;2.33;;;0.90;;
35969;SDS011;22448;51.298;6.430;2022-11-22T15:30:52;4.30;;;0.98;;
35969;SDS011;22448;51.298;6.430;2022-11-22T15:33:48;1.88;;;1.10;;
35969;SDS011;22448;51.298;6.430;2022-11-22T15:36:47;2.25;;;0.77;;
35969;SDS011;22448;51.298;6.430;2022-11-22T15:39:45;1.73;;;0.80;;
35969;SDS011;22448;51.298;6.430;2022-11-22T15:42:33;2.58;;;1.08;;
35969;SDS011;22448;51.298;6.430;2022-11-22T15:45:20;2.35;;;0.90;;
35969;SDS011;22448;51.298;6.430;2022-11-22T15:48:16;2.22;;;0.85;;
35969;SDS011;22448;51.298;6.430;2022-11-22T15:56:51;1.17;;;0.70;;
35969;SDS011;22448;51.298;6.430;2022-11-22T15:59:40;3.30;;;1.10;;
35969;SDS011;22448;51.298;6.430;2022-11-22T16:02:19;2.80;;;1.00;;
35969;SDS011;22448;51.298;6.430;2022-11-22T16:04:48;2.45;;;0.88;;
35969;SDS011;22448;51.298;6.430;2022-11-22T16:07:45;4.13;;;1.00;;
35969;SDS011;22448;51.298;6.430;2022-11-22T16:10:18;3.45;;;0.77;;
35969;SDS011;22448;51.298;6.430;2022-11-22T16:12:47;2.50;;;1.00;;
35969;SDS011;22448;51.298;6.430;2022-11-22T16:15:22;2.85;;;1.08;;
35969;SDS011;22448;51.298;6.430;2022-11-22T16:21:00;1.33;;;1.10;;
35969;SDS011;22448;51.298;6.430;2022-11-22T16:23:29;3.60;;;0.90;;
35969;SDS011;22448;51.298;6.430;2022-11-22T16:26:10;3.08;;;1.00;;
35969;SDS011;22448;51.298;6.430;2022-11-22T16:28:51;7.05;;;1.25;;
35969;SDS011;22448;51.298;6.430;2022-11-22T16:31:21;4.88;;;1.10;;
35969;SDS011;22448;51.298;6.430;2022-11-22T16:33:54;3.30;;;1.40;;
35969;SDS011;22448;51.298;6.430;2022-11-22T16:36:22;1.80;;;1.33;;
35969;SDS011;22448;51.298;6.430;2022-11-22T16:38:53;4.00;;;1.35;;
35969;SDS011;22448;51.298;6.430;2022-11-22T16:41:23;1.75;;;1.20;;
35969;SDS011;22448;51.298;6.430;2022-11-22T16:43:53;2.53;;;1.35;;
35969;SDS011;22448;51.298;6.430;2022-11-22T16:46:35;1.70;;;1.20;;
35969;SDS011;22448;51.298;6.430;2022-11-22T16:49:09;1.38;;;0.82;;
35969;SDS011;22448;51.298;6.430;2022-11-22T16:51:45;1.60;;;1.10;;
35969;SDS011;22448;51.298;6.430;2022-11-22T16:54:14;3.30;;;1.35;;
35969;SDS011;22448;51.298;6.430;2022-11-22T16:56:45;1.92;;;1.30;;
35969;SDS011;22448;51.298;6.430;2022-11-22T16:59:12;2.92;;;1.00;;
35969;SDS011;22448;51.298;6.430;2022-11-22T17:01:43;1.55;;;1.10;;
35969;SDS011;22448;51.298;6.430;2022-11-22T17:04:17;1.70;;;1.23;;
35969;SDS011;22448;51.298;6.430;2022-11-22T17:06:50;4.80;;;1.10;;
35969;SDS011;22448;51.298;6.430;2022-11-22T17:09:17;4.13;;;1.33;;
35969;SDS011;22448;51.298;6.430;2022-11-22T17:11:44;1.95;;;1.55;;
35969;SDS011;22448;51.298;6.430;2022-11-22T17:14:14;1.60;;;1.10;;
35969;SDS011;22448;51.298;6.430;2022-11-22T17:16:43;2.13;;;1.00;;